Time;durP1;ratioP1;P1;durP2;ratioP2;P2;SDS_P1;SDS_P2;PMS_P1;PMS_P2;Temp;Humidity;BMP_temperature;BMP_pressure;BME280_temperature;BME280_humidity;BME280_pressure;Samples;Min_cycle;Max_cycle;Signal;HPM_P1;HPM_P2
2022/10/21 00:01:20;;;;;;;146.77;72.53;;;;;;;16.71;100.00;100918.78;4902896;29;20037;-88
2022/10/21 00:03:45;;;;;;;141.77;71.93;;;;;;;16.63;100.00;100916.25;4911870;29;20076;-90
2022/10/21 00:06:11;;;;;;;148.88;72.25;;;;;;;16.68;100.00;100913.00;4922069;29;20056;-89
2022/10/21 00:08:37;;;;;;;145.73;72.50;;;;;;;16.63;100.00;100913.59;4920718;29;20032;-89
2022/10/21 00:11:05;;;;;;;156.02;76.40;;;;;;;16.65;100.00;100914.22;4921492;29;20033;-89
2022/10/21 00:13:33;;;;;;;153.15;77.45;;;;;;;16.52;100.00;100906.03;4921145;29;20053;-91
2022/10/21 00:15:58;;;;;;;159.23;79.47;;;;;;;16.37;100.00;100910.63;4917007;29;20033;-88
2022/10/21 00:18:24;;;;;;;159.75;78.70;;;;;;;16.26;100.00;100922.63;4921202;29;20431;-89
2022/10/21 00:20:50;;;;;;;161.85;79.07;;;;;;;16.19;100.00;100928.91;4908413;29;20037;-89
2022/10/21 00:23:15;;;;;;;162.63;77.45;;;;;;;16.23;100.00;100928.38;4900370;29;20036;-90
2022/10/21 00:25:40;;;;;;;169.07;78.93;;;;;;;16.23;100.00;100928.38;4899443;29;20028;-89
2022/10/21 00:28:06;;;;;;;165.80;80.32;;;;;;;16.24;100.00;100921.19;4900410;29;20068;-90
2022/10/21 00:30:32;;;;;;;154.43;75.13;;;;;;;16.35;100.00;100917.97;4899555;29;20029;-89
2022/10/21 00:32:57;;;;;;;152.98;75.15;;;;;;;16.47;100.00;100921.84;4900303;29;20045;-90
2022/10/21 00:35:23;;;;;;;158.18;76.22;;;;;;;16.47;100.00;100917.28;4900900;29;20037;-89
2022/10/21 00:37:48;;;;;;;148.13;73.00;;;;;;;16.63;100.00;100921.63;4900144;29;20065;-91
2022/10/21 00:40:14;;;;;;;139.25;70.78;;;;;;;16.77;100.00;100907.31;4899590;29;20156;-91
2022/10/21 00:42:40;;;;;;;154.23;73.07;;;;;;;16.70;100.00;100905.63;4900114;29;20444;-88
2022/10/21 00:45:05;;;;;;;153.60;76.18;;;;;;;16.73;100.00;100911.41;4899864;29;20043;-90
2022/10/21 00:47:41;;;;;;;145.00;71.07;;;;;;;16.72;100.00;100911.59;4886693;29;20041;-90
2022/10/21 00:50:36;;;;;;;140.10;70.60;;;;;;;16.80;100.00;100908.78;4919332;29;20183;-90
2022/10/21 00:53:05;;;;;;;146.90;72.03;;;;;;;16.71;100.00;100909.94;4904590;29;20041;-90
2022/10/21 00:55:33;;;;;;;134.82;67.18;;;;;;;16.82;100.00;100912.09;4903684;29;20111;-90
2022/10/21 00:58:01;;;;;;;145.43;72.20;;;;;;;16.54;100.00;100909.31;4902946;29;20046;-87
2022/10/21 01:00:30;;;;;;;151.85;73.90;;;;;;;16.47;100.00;100897.75;4903424;29;20028;-89
2022/10/21 01:02:55;;;;;;;142.20;70.38;;;;;;;16.60;100.00;100889.88;4902504;29;20068;-88
2022/10/21 01:05:22;;;;;;;143.65;72.03;;;;;;;16.56;100.00;100885.94;4903239;29;20051;-88
2022/10/21 01:07:49;;;;;;;146.77;71.57;;;;;;;16.62;100.00;100887.84;4903321;29;20398;-88
2022/10/21 01:10:18;;;;;;;137.43;68.95;;;;;;;16.75;100.00;100871.88;4886147;29;20028;-89
2022/10/21 01:13:07;;;;;;;152.00;73.47;;;;;;;16.56;100.00;100877.91;4901101;29;20036;-88
2022/10/21 01:15:49;;;;;;;150.20;71.82;;;;;;;16.55;100.00;100881.59;4883699;29;20437;-90
2022/10/21 01:18:33;;;;;;;151.10;74.90;;;;;;;16.67;100.00;100880.03;4882966;29;20041;-89
2022/10/21 01:21:07;;;;;;;145.95;73.57;;;;;;;16.66;100.00;100867.69;4882941;29;20045;-89
2022/10/21 01:24:06;;;;;;;152.95;74.00;;;;;;;16.52;100.00;100865.88;4883924;29;20056;-89
2022/10/21 01:26:50;;;;;;;168.38;76.50;;;;;;;16.33;100.00;100850.50;4882025;29;20077;-89
2022/10/21 01:29:39;;;;;;;165.45;79.95;;;;;;;15.97;100.00;100847.84;4883862;29;20037;-90
2022/10/21 01:32:34;;;;;;;183.68;84.05;;;;;;;15.87;100.00;100828.63;4881612;29;20060;-88
2022/10/21 01:35:27;;;;;;;187.15;87.68;;;;;;;15.78;100.00;100825.22;4875494;29;20097;-89
2022/10/21 01:38:30;;;;;;;195.63;86.72;;;;;;;15.84;100.00;100823.66;4882981;29;20498;-90
2022/10/21 01:41:00;;;;;;;;;;;;;;;15.98;100.00;100825.44;4883815;29;20100;-89
2022/10/21 01:43:41;;;;;;;180.80;85.00;;;;;;;15.91;100.00;100821.84;4881966;29;19927;-87
2022/10/21 01:46:25;;;;;;;198.43;91.55;;;;;;;15.85;100.00;100834.16;4882043;29;20036;-89
2022/10/21 01:48:57;;;;;;;198.50;90.88;;;;;;;15.77;100.00;100839.63;4883737;29;20496;-89
2022/10/21 01:51:26;;;;;;;191.45;90.88;;;;;;;15.84;100.00;100840.50;4883490;29;20029;-89
2022/10/21 01:54:00;;;;;;;195.82;91.00;;;;;;;15.92;100.00;100832.38;4882938;29;20037;-89
2022/10/21 01:56:28;;;;;;;197.43;89.53;;;;;;;16.02;100.00;100840.91;4882871;29;20036;-89
2022/10/21 01:58:55;;;;;;;196.65;89.55;;;;;;;16.14;100.00;100843.09;4882087;29;20041;-89
2022/10/21 02:01:22;;;;;;;193.40;90.10;;;;;;;16.10;100.00;100839.97;4882264;29;20448;-88
2022/10/21 02:03:53;;;;;;;187.27;87.20;;;;;;;16.20;100.00;100839.66;4882808;29;20089;-88
2022/10/21 02:06:19;;;;;;;182.95;85.30;;;;;;;16.42;100.00;100841.31;4882697;29;20036;-87
2022/10/21 02:08:44;;;;;;;175.63;85.45;;;;;;;16.42;100.00;100849.31;4882734;29;20029;-88
2022/10/21 02:11:11;;;;;;;176.15;85.07;;;;;;;16.45;100.00;100841.75;4894040;29;20021;-88
2022/10/21 02:13:44;;;;;;;169.80;82.95;;;;;;;16.45;100.00;100838.25;4892678;29;20124;-89
2022/10/21 02:16:14;;;;;;;185.32;85.75;;;;;;;16.39;100.00;100847.88;4883181;29;20033;-88
2022/10/21 02:18:42;;;;;;;182.70;85.05;;;;;;;16.31;100.00;100841.81;4881662;29;20162;-89
2022/10/21 02:21:15;;;;;;;178.82;86.18;;;;;;;16.45;100.00;100827.53;4881475;29;20132;-89
2022/10/21 02:24:00;;;;;;;;;;;;;;;16.32;100.00;100832.78;4887251;29;20117;-88
2022/10/21 02:26:27;;;;;;;174.38;83.13;;;;;;;16.31;100.00;100825.75;4888263;29;19919;-90
2022/10/21 02:28:55;;;;;;;170.27;80.43;;;;;;;16.36;100.00;100812.66;4896370;29;20020;-86
2022/10/21 02:31:21;;;;;;;169.77;84.30;;;;;;;16.43;100.00;100808.19;4897123;29;20402;-87
2022/10/21 02:33:57;;;;;;;169.95;80.85;;;;;;;16.46;100.00;100813.16;4896483;29;20064;-90
2022/10/21 02:36:54;;;;;;;176.52;81.13;;;;;;;16.57;100.00;100804.63;4883024;29;20041;-90
2022/10/21 02:39:46;;;;;;;161.10;78.65;;;;;;;16.60;100.00;100808.78;4883046;29;20161;-89
2022/10/21 02:42:16;;;;;;;164.98;78.10;;;;;;;16.67;100.00;100810.44;4883061;29;20056;-89
2022/10/21 02:44:41;;;;;;;160.57;79.97;;;;;;;16.59;100.00;100807.94;4883203;29;20037;-89
2022/10/21 02:47:07;;;;;;;163.27;80.55;;;;;;;16.58;100.00;100810.78;4882567;29;20056;-88
2022/10/21 02:49:32;;;;;;;170.60;80.82;;;;;;;16.54;100.00;100810.31;4882351;29;20088;-89
2022/10/21 02:52:01;;;;;;;163.15;78.20;;;;;;;16.63;100.00;100817.25;4881159;29;20144;-89
2022/10/21 02:54:26;;;;;;;160.05;79.65;;;;;;;16.59;100.00;100815.97;4883269;29;20029;-91
2022/10/21 02:56:52;;;;;;;172.70;80.57;;;;;;;16.38;100.00;100807.94;4866505;29;20032;-89
2022/10/21 02:59:17;;;;;;;165.07;81.30;;;;;;;16.32;100.00;100806.03;4880767;29;20414;-88
2022/10/21 03:01:43;;;;;;;169.23;82.82;;;;;;;16.40;100.00;100816.59;4882437;29;20069;-87
2022/10/21 03:04:08;;;;;;;169.35;80.30;;;;;;;16.09;100.00;100810.75;4881820;29;20461;-89
2022/10/21 03:06:34;;;;;;;178.90;82.82;;;;;;;16.02;100.00;100799.97;4880420;29;20056;-88
2022/10/21 03:08:59;;;;;;;176.98;82.63;;;;;;;16.18;100.00;100788.19;4881213;29;20056;-88
2022/10/21 03:11:25;;;;;;;172.10;81.80;;;;;;;16.19;100.00;100773.81;4881672;29;20089;-88
2022/10/21 03:13:50;;;;;;;175.55;82.53;;;;;;;16.14;100.00;100773.56;4879424;29;20043;-89
2022/10/21 03:16:16;;;;;;;173.48;84.07;;;;;;;16.00;100.00;100769.94;4881670;29;20089;-89
2022/10/21 03:18:42;;;;;;;186.85;87.20;;;;;;;15.77;100.00;100774.66;4881847;29;20037;-90
2022/10/21 03:21:08;;;;;;;185.68;87.90;;;;;;;15.72;100.00;100761.00;4881074;29;20097;-90
2022/10/21 03:23:33;;;;;;;190.52;88.70;;;;;;;15.69;100.00;100754.22;4881626;29;20037;-88
2022/10/21 03:25:59;;;;;;;198.88;90.40;;;;;;;15.79;100.00;100754.72;4881325;29;20065;-86
2022/10/21 03:28:24;;;;;;;202.73;90.75;;;;;;;15.74;100.00;100775.81;4881332;29;20028;-87
2022/10/21 03:30:50;;;;;;;186.13;86.18;;;;;;;15.68;100.00;100797.97;4881576;29;20044;-88
2022/10/21 03:33:16;;;;;;;184.98;84.45;;;;;;;15.79;100.00;100799.31;4887833;29;20056;-88
2022/10/21 03:35:41;;;;;;;185.55;87.68;;;;;;;15.79;100.00;100794.81;4896423;29;20033;-86
2022/10/21 03:38:07;;;;;;;190.88;86.68;;;;;;;15.91;100.00;100803.16;4881163;29;20043;-87
2022/10/21 03:40:32;;;;;;;194.13;87.85;;;;;;;15.76;100.00;100805.06;4880918;29;20047;-87
2022/10/21 03:42:58;;;;;;;188.10;86.38;;;;;;;15.78;100.00;100808.34;4879973;29;20048;-87
2022/10/21 03:45:24;;;;;;;189.27;86.63;;;;;;;15.81;100.00;100810.69;4880779;29;20029;-87
2022/10/21 03:47:51;;;;;;;200.30;88.18;;;;;;;15.72;100.00;100807.28;4881701;29;20081;-87
2022/10/21 03:50:18;;;;;;;199.00;86.75;;;;;;;15.61;100.00;100799.72;4881120;29;20077;-87
2022/10/21 03:52:44;;;;;;;198.55;86.43;;;;;;;15.80;100.00;100803.66;4881147;29;20033;-88
2022/10/21 03:55:10;;;;;;;199.48;88.30;;;;;;;15.72;100.00;100812.63;4881023;29;20092;-87
2022/10/21 03:57:35;;;;;;;200.23;90.25;;;;;;;15.74;100.00;100818.59;4880957;29;20089;-88
2022/10/21 04:00:01;;;;;;;209.45;93.03;;;;;;;15.72;100.00;100815.28;4881237;29;20105;-86
2022/10/21 04:02:27;;;;;;;194.65;90.38;;;;;;;15.64;100.00;100818.09;4881184;29;20037;-87
2022/10/21 04:04:52;;;;;;;190.45;89.60;;;;;;;15.67;100.00;100804.34;4881222;29;20108;-89
2022/10/21 04:07:18;;;;;;;192.70;86.78;;;;;;;15.76;100.00;100805.88;4881301;29;20048;-88
2022/10/21 04:09:43;;;;;;;194.63;86.05;;;;;;;15.83;100.00;100806.78;4879800;29;20127;-89
2022/10/21 04:12:09;;;;;;;194.13;88.72;;;;;;;15.67;100.00;100796.34;4879812;29;20052;-88
2022/10/21 04:14:34;;;;;;;195.30;90.70;;;;;;;15.56;100.00;100796.81;4881260;29;20030;-86
2022/10/21 04:17:00;;;;;;;192.90;89.53;;;;;;;15.66;100.00;100791.16;4864420;29;20097;-85
2022/10/21 04:19:25;;;;;;;182.73;85.38;;;;;;;15.83;100.00;100782.72;4881101;29;20071;-89
2022/10/21 04:21:54;;;;;;;191.00;87.32;;;;;;;15.89;100.00;100783.81;4880917;29;20116;-90
2022/10/21 04:24:19;;;;;;;188.40;87.43;;;;;;;15.99;100.00;100790.50;4882222;29;20104;-89
2022/10/21 04:26:47;;;;;;;194.75;88.00;;;;;;;15.65;100.00;100776.97;4892365;29;20041;-89
2022/10/21 04:29:13;;;;;;;183.30;86.20;;;;;;;15.85;100.00;100771.84;4894436;29;20064;-89
2022/10/21 04:31:38;;;;;;;178.25;85.55;;;;;;;15.83;100.00;100772.03;4886939;29;20128;-90
2022/10/21 04:34:04;;;;;;;179.10;86.22;;;;;;;15.79;100.00;100770.75;4885635;29;20040;-90
2022/10/21 04:36:30;;;;;;;198.30;89.50;;;;;;;15.54;100.00;100753.44;4885902;29;20035;-92
2022/10/21 04:38:55;;;;;;;178.60;86.63;;;;;;;15.61;100.00;100756.97;4869568;29;20422;-89
2022/10/21 04:41:21;;;;;;;198.50;89.00;;;;;;;15.59;100.00;100751.00;4885119;29;20132;-87
2022/10/21 04:43:46;;;;;;;194.75;89.30;;;;;;;15.76;100.00;100751.59;4885390;29;20044;-85
2022/10/21 04:46:14;;;;;;;187.77;87.22;;;;;;;15.68;100.00;100759.72;4885807;29;20423;-87
2022/10/21 04:48:40;;;;;;;185.93;86.43;;;;;;;15.73;100.00;100758.16;4885290;29;20120;-88
2022/10/21 04:51:06;;;;;;;188.07;87.95;;;;;;;15.69;100.00;100756.88;4892645;29;20245;-90
2022/10/21 04:53:35;;;;;;;192.07;86.50;;;;;;;15.67;100.00;100758.09;4875672;29;20566;-92
2022/10/21 04:56:03;;;;;;;179.82;84.70;;;;;;;15.70;100.00;100747.84;4900234;29;20052;-89
2022/10/21 04:58:29;;;;;;;181.35;84.95;;;;;;;15.78;100.00;100747.72;4897148;29;20586;-90
2022/10/21 05:00:55;;;;;;;187.30;84.50;;;;;;;15.64;100.00;100756.63;4891536;29;20037;-88
2022/10/21 05:03:21;;;;;;;193.18;88.13;;;;;;;15.30;100.00;100751.88;4887467;29;20042;-90
2022/10/21 05:05:52;;;;;;;195.07;86.70;;;;;;;15.34;100.00;100755.03;4890504;29;20041;-92
2022/10/21 05:08:19;;;;;;;210.67;91.23;;;;;;;15.11;100.00;100759.66;4888891;29;20077;-87
2022/10/21 05:10:45;;;;;;;193.88;88.10;;;;;;;15.09;100.00;100759.81;4888358;29;20436;-89
2022/10/21 05:13:10;;;;;;;188.88;85.68;;;;;;;15.19;100.00;100748.84;4892471;29;20029;-91
2022/10/21 05:15:36;;;;;;;191.43;84.40;;;;;;;15.28;100.00;100747.75;4872227;29;20088;-87
2022/10/21 05:18:02;;;;;;;169.48;76.57;;;;;;;15.24;100.00;100735.78;4885991;29;20083;-90
2022/10/21 05:20:30;;;;;;;162.80;74.32;;;;;;;15.19;100.00;100723.00;4891509;29;20072;-91
2022/10/21 05:22:56;;;;;;;175.93;76.63;;;;;;;15.12;100.00;100730.09;4891623;29;20044;-91
2022/10/21 05:25:21;;;;;;;180.98;80.88;;;;;;;14.80;100.00;100730.47;4887484;29;20091;-86
2022/10/21 05:27:47;;;;;;;160.38;76.72;;;;;;;14.88;100.00;100730.41;4869878;29;20044;-87
2022/10/21 05:30:13;;;;;;;157.35;72.25;;;;;;;15.08;100.00;100736.00;4885059;29;20053;-87
2022/10/21 05:32:39;;;;;;;160.80;71.80;;;;;;;14.97;100.00;100734.63;4867664;29;20029;-88
2022/10/21 05:35:06;;;;;;;156.90;70.57;;;;;;;15.05;100.00;100726.50;4868671;29;20044;-87
2022/10/21 05:37:32;;;;;;;142.32;68.57;;;;;;;14.99;100.00;100711.22;4879496;29;20656;-88
2022/10/21 05:39:57;;;;;;;152.60;68.50;;;;;;;15.11;100.00;100731.13;4882190;29;20040;-88
2022/10/21 05:42:23;;;;;;;148.45;68.32;;;;;;;15.17;100.00;100713.53;4880196;29;20049;-87
2022/10/21 05:44:48;;;;;;;142.88;65.60;;;;;;;15.11;100.00;100723.13;4880913;29;20041;-88
2022/10/21 05:47:14;;;;;;;137.57;64.40;;;;;;;15.23;100.00;100720.78;4881179;29;20600;-88
2022/10/21 05:49:40;;;;;;;132.38;62.40;;;;;;;15.28;100.00;100723.72;4882201;29;20045;-85
2022/10/21 05:52:05;;;;;;;133.27;61.58;;;;;;;15.26;100.00;100736.41;4883602;29;20048;-89
2022/10/21 05:54:31;;;;;;;130.55;61.03;;;;;;;15.23;100.00;100734.13;4882782;29;20611;-88
2022/10/21 05:57:01;;;;;;;133.38;61.47;;;;;;;15.40;100.00;100719.53;4875184;29;20041;-87
2022/10/21 05:59:26;;;;;;;134.88;64.53;;;;;;;15.37;100.00;100725.25;4872544;29;20138;-87
2022/10/21 06:01:52;;;;;;;137.07;65.05;;;;;;;15.35;100.00;100738.78;4871261;29;20104;-84
2022/10/21 06:04:18;;;;;;;134.35;61.05;;;;;;;15.44;100.00;100715.47;4869259;29;20041;-84
2022/10/21 06:06:43;;;;;;;126.93;61.60;;;;;;;15.41;100.00;100705.19;4872505;29;20065;-84
2022/10/21 06:09:09;;;;;;;135.80;63.25;;;;;;;15.33;100.00;100715.97;4875156;29;20077;-85
2022/10/21 06:11:34;;;;;;;138.52;66.22;;;;;;;15.23;100.00;100723.44;4875902;29;20028;-86
2022/10/21 06:14:00;;;;;;;144.82;64.93;;;;;;;15.34;100.00;100726.47;4874240;29;20044;-87
2022/10/21 06:16:25;;;;;;;136.77;65.00;;;;;;;15.33;100.00;100713.28;4861704;29;20089;-87
2022/10/21 06:18:51;;;;;;;156.95;69.85;;;;;;;15.45;100.00;100733.16;4888375;29;20391;-88
2022/10/21 06:21:16;;;;;;;143.10;68.03;;;;;;;15.36;100.00;100747.63;4869037;29;20062;-88
2022/10/21 06:23:42;;;;;;;147.60;68.30;;;;;;;15.22;100.00;100745.81;4876405;29;20041;-87
2022/10/21 06:26:13;;;;;;;154.25;69.32;;;;;;;15.39;100.00;100752.59;4864474;29;20041;-86
2022/10/21 06:28:40;;;;;;;146.27;67.82;;;;;;;15.53;100.00;100751.78;4864531;29;20041;-87
2022/10/21 06:31:06;;;;;;;153.35;70.50;;;;;;;15.46;100.00;100757.00;4862968;29;20507;-89
2022/10/21 06:33:33;;;;;;;170.43;72.65;;;;;;;15.47;100.00;100752.50;4848139;29;20034;-88
2022/10/21 06:35:58;;;;;;;155.98;68.82;;;;;;;15.60;100.00;100752.69;4862692;29;20025;-88
2022/10/21 06:38:27;;;;;;;154.65;69.55;;;;;;;15.75;100.00;100769.47;4863963;29;20185;-88
2022/10/21 06:41:01;;;;;;;151.43;72.55;;;;;;;15.66;100.00;100767.94;4863660;29;20456;-89
2022/10/21 06:43:27;;;;;;;143.45;70.32;;;;;;;15.58;100.00;100767.25;4864217;29;20101;-87
2022/10/21 06:45:52;;;;;;;158.00;71.50;;;;;;;15.61;100.00;100756.97;4865443;29;20057;-86
2022/10/21 06:48:18;;;;;;;153.02;71.20;;;;;;;15.51;100.00;100757.28;4868818;29;20387;-88
2022/10/21 06:50:43;;;;;;;158.55;73.78;;;;;;;15.35;100.00;100759.31;4861583;29;20072;-87
2022/10/21 06:53:09;;;;;;;152.65;72.45;;;;;;;15.44;100.00;100752.88;4876344;29;20037;-85
2022/10/21 06:55:34;;;;;;;151.25;73.70;;;;;;;15.25;100.00;100745.44;4875298;29;20120;-87
2022/10/21 06:58:00;;;;;;;174.82;78.80;;;;;;;15.25;100.00;100750.78;4864686;29;20057;-84
2022/10/21 07:00:25;;;;;;;176.70;77.60;;;;;;;15.25;100.00;100758.78;4870759;29;20124;-86
2022/10/21 07:02:51;;;;;;;164.73;78.28;;;;;;;15.13;100.00;100766.47;4862443;29;20077;-89
2022/10/21 07:05:17;;;;;;;167.82;80.90;;;;;;;15.13;100.00;100761.13;4862800;29;20125;-89
2022/10/21 07:07:42;;;;;;;164.25;78.82;;;;;;;15.14;100.00;100773.47;4862327;29;20044;-88
2022/10/21 07:10:08;;;;;;;182.60;83.70;;;;;;;14.92;100.00;100775.19;4861153;29;20036;-87
2022/10/21 07:12:33;;;;;;;186.73;84.05;;;;;;;14.89;100.00;100775.56;4862265;29;20045;-90
2022/10/21 07:14:59;;;;;;;179.55;82.05;;;;;;;15.06;100.00;100783.38;4864591;29;20041;-90
2022/10/21 07:17:28;;;;;;;184.95;82.22;;;;;;;14.99;100.00;100797.47;4863023;29;20365;-88
2022/10/21 07:19:54;;;;;;;176.30;81.53;;;;;;;15.16;100.00;100797.28;4863047;29;20040;-88
2022/10/21 07:22:19;;;;;;;183.55;81.97;;;;;;;15.06;100.00;100812.75;4862289;29;20476;-88
2022/10/21 07:24:44;;;;;;;186.90;81.55;;;;;;;15.07;100.00;100825.09;4862356;29;20112;-88
2022/10/21 07:27:11;;;;;;;181.88;81.97;;;;;;;14.93;100.00;100806.22;4861378;29;20065;-89
2022/10/21 07:29:36;;;;;;;186.82;83.38;;;;;;;14.98;100.00;100825.16;4861053;29;20492;-88
2022/10/21 07:32:02;;;;;;;187.98;83.13;;;;;;;14.96;100.00;100824.53;4861911;29;20524;-87
2022/10/21 07:34:27;;;;;;;197.25;83.20;;;;;;;14.92;100.00;100823.25;4860896;29;20381;-88
2022/10/21 07:36:53;;;;;;;181.43;81.82;;;;;;;14.95;100.00;100812.19;4861110;29;20053;-89
2022/10/21 07:39:25;;;;;;;179.57;79.82;;;;;;;15.05;100.00;100817.25;4864056;29;20369;-86
2022/10/21 07:41:54;;;;;;;171.38;78.70;;;;;;;15.04;100.00;100825.47;4872948;29;20030;-89
2022/10/21 07:44:24;;;;;;;177.48;78.43;;;;;;;15.02;100.00;100813.13;4878590;29;20132;-90
2022/10/21 07:46:51;;;;;;;184.75;82.43;;;;;;;15.01;100.00;100810.66;4861694;29;20054;-90
2022/10/21 07:49:18;;;;;;;183.00;81.97;;;;;;;15.00;100.00;100815.16;4863174;29;20030;-88
2022/10/21 07:51:44;;;;;;;187.02;83.72;;;;;;;15.09;100.00;100815.88;4862760;29;20164;-89
2022/10/21 07:54:12;;;;;;;186.25;82.57;;;;;;;15.10;100.00;100808.72;4863103;29;20429;-90
2022/10/21 07:56:40;;;;;;;186.32;82.55;;;;;;;15.16;100.00;100799.97;4861935;29;20125;-90
2022/10/21 07:59:07;;;;;;;187.32;81.68;;;;;;;15.09;100.00;100791.03;4865992;29;20061;-88
2022/10/21 08:01:34;;;;;;;197.00;84.65;;;;;;;15.15;100.00;100784.94;4866354;29;20567;-93
2022/10/21 08:04:01;;;;;;;191.75;83.13;;;;;;;15.12;100.00;100786.16;4864771;29;20492;-89
2022/10/21 08:06:28;;;;;;;200.65;86.25;;;;;;;15.14;100.00;100785.97;4864376;29;20034;-89
2022/10/21 08:08:56;;;;;;;190.27;83.40;;;;;;;15.18;100.00;100788.06;4863788;29;20065;-88
2022/10/21 08:11:23;;;;;;;195.13;86.57;;;;;;;15.25;100.00;100790.81;4863174;29;20066;-90
2022/10/21 08:13:48;;;;;;;205.02;89.60;;;;;;;15.23;100.00;100783.03;4864117;29;20115;-89
2022/10/21 08:16:14;;;;;;;204.57;87.32;;;;;;;15.29;100.00;100776.94;4861680;29;20057;-89
2022/10/21 08:18:40;;;;;;;210.23;88.88;;;;;;;15.24;100.00;100781.19;4862432;29;20041;-88
2022/10/21 08:21:05;;;;;;;210.75;88.45;;;;;;;15.38;100.00;100774.97;4863682;29;20037;-89
2022/10/21 08:23:31;;;;;;;196.73;86.70;;;;;;;15.61;100.00;100758.84;4861553;29;20045;-86
2022/10/21 08:25:59;;;;;;;205.13;88.38;;;;;;;15.51;100.00;100765.31;4860347;29;20041;-87
2022/10/21 08:28:27;;;;;;;221.05;89.25;;;;;;;15.47;100.00;100769.34;4861560;29;20037;-88
2022/10/21 08:31:00;;;;;;;217.43;92.25;;;;;;;15.30;100.00;100767.09;4862519;29;20169;-89
2022/10/21 08:33:26;;;;;;;225.27;90.97;;;;;;;15.34;100.00;100765.69;4850302;29;20049;-87
2022/10/21 08:35:53;;;;;;;231.75;99.10;;;;;;;15.33;100.00;100756.03;4865180;29;20053;-89
2022/10/21 08:38:20;;;;;;;223.07;93.82;;;;;;;15.39;100.00;100755.28;4860939;29;20033;-87
2022/10/21 08:40:47;;;;;;;224.23;98.10;;;;;;;15.35;100.00;100746.81;4859953;29;20049;-87
2022/10/21 08:43:21;;;;;;;225.80;97.50;;;;;;;15.42;100.00;100744.22;4861261;29;20058;-87
2022/10/21 08:46:10;;;;;;;217.52;92.80;;;;;;;15.48;100.00;100728.28;4860186;29;20076;-86
2022/10/21 08:48:44;;;;;;;211.65;92.38;;;;;;;15.49;100.00;100735.28;4861404;29;20048;-86
2022/10/21 08:51:41;;;;;;;217.10;93.70;;;;;;;15.52;100.00;100728.75;4862156;29;20040;-89
2022/10/21 08:54:17;;;;;;;225.85;95.40;;;;;;;15.58;100.00;100738.66;4862913;29;20064;-87
2022/10/21 08:56:44;;;;;;;230.48;97.78;;;;;;;15.50;100.00;100725.44;4862487;29;20037;-87
2022/10/21 08:59:23;;;;;;;217.10;94.10;;;;;;;15.56;100.00;100714.00;4861875;29;20049;-88
2022/10/21 09:01:58;;;;;;;233.63;96.57;;;;;;;15.50;100.00;100714.75;4862795;29;20548;-87
2022/10/21 09:05:02;;;;;;;221.32;94.65;;;;;;;15.67;100.00;100713.50;4870733;29;20038;-87
2022/10/21 09:08:12;;;;;;;223.52;90.57;;;;;;;15.62;100.00;100723.91;4873552;29;20045;-87
2022/10/21 09:10:53;;;;;;;219.55;89.40;;;;;;;15.67;100.00;100724.19;4846874;29;20049;-89
2022/10/21 09:13:47;;;;;;;204.52;85.47;;;;;;;15.72;100.00;100729.78;4864982;29;20032;-88
2022/10/21 09:16:18;;;;;;;214.88;86.30;;;;;;;15.80;100.00;100721.66;4865713;29;20045;-87
2022/10/21 09:18:49;;;;;;;205.48;86.68;;;;;;;15.88;100.00;100737.53;4865842;29;20050;-86
2022/10/21 09:21:27;;;;;;;210.82;84.13;;;;;;;15.88;100.00;100742.06;4866027;29;20472;-90
2022/10/21 09:24:08;;;;;;;196.52;83.82;;;;;;;15.92;100.00;100762.03;4864993;29;20046;-88
2022/10/21 09:26:43;;;;;;;200.93;82.35;;;;;;;15.88;100.00;100761.59;4865711;29;20174;-87
2022/10/21 09:29:30;;;;;;;198.95;85.28;;;;;;;15.82;100.00;100759.69;4865676;29;20113;-88
2022/10/21 09:32:19;;;;;;;194.95;78.45;;;;;;;15.89;100.00;100735.69;4867250;29;20045;-86
2022/10/21 09:34:56;;;;;;;174.65;71.85;;;;;;;15.99;100.00;100709.47;4861793;29;20538;-86
2022/10/21 09:37:34;;;;;;;166.60;67.57;;;;;;;16.06;100.00;100746.97;4865824;29;20049;-85
2022/10/21 09:40:16;;;;;;;164.50;64.70;;;;;;;16.24;100.00;100766.06;4865643;29;20034;-87
2022/10/21 09:42:42;;;;;;;137.50;59.47;;;;;;;16.21;100.00;100753.03;4865504;29;20121;-88
2022/10/21 09:45:28;;;;;;;150.55;61.10;;;;;;;16.25;100.00;100741.78;4868494;29;20381;-88
2022/10/21 09:48:00;;;;;;;151.57;58.58;;;;;;;16.24;100.00;100750.00;4865944;29;20124;-88
2022/10/21 09:50:30;;;;;;;138.80;57.40;;;;;;;16.23;100.00;100743.84;4869719;29;20049;-88
2022/10/21 09:53:11;;;;;;;143.40;55.50;;;;;;;16.10;100.00;100745.56;4866393;29;20037;-88
2022/10/21 09:55:38;;;;;;;142.93;55.97;;;;;;;16.26;100.00;100731.91;4866550;29;20041;-89
2022/10/21 09:58:04;;;;;;;136.45;54.15;;;;;;;16.19;100.00;100731.84;4867150;29;20053;-88
2022/10/21 10:00:59;;;;;;;152.77;55.90;;;;;;;16.13;100.00;100716.59;4867716;29;20046;-87
2022/10/21 10:03:49;;;;;;;148.95;53.38;;;;;;;16.12;100.00;100730.97;4830502;29;20520;-88
2022/10/21 10:06:39;;;;;;;149.98;54.85;;;;;;;16.14;100.00;100741.50;4843747;29;20045;-89
2022/10/21 10:09:23;;;;;;;155.60;53.10;;;;;;;16.20;100.00;100748.75;4843474;29;20042;-86
2022/10/21 10:11:56;;;;;;;155.45;53.78;;;;;;;16.18;100.00;100748.09;4843211;29;20050;-88
2022/10/21 10:14:31;;;;;;;165.15;56.90;;;;;;;16.11;100.00;100744.56;4857027;29;20133;-89
2022/10/21 10:17:07;;;;;;;161.32;54.22;;;;;;;16.13;100.00;100734.47;4864964;29;20041;-88
2022/10/21 10:19:33;;;;;;;153.48;53.72;;;;;;;16.15;100.00;100735.09;4864889;29;20128;-89
2022/10/21 10:22:29;;;;;;;151.32;53.45;;;;;;;16.14;100.00;100742.28;4863811;29;20046;-88
2022/10/21 10:25:10;;;;;;;144.43;54.47;;;;;;;16.06;100.00;100749.63;4864567;29;20045;-88
2022/10/21 10:27:36;;;;;;;144.40;52.88;;;;;;;16.13;100.00;100753.19;4867674;29;20067;-87
2022/10/21 10:30:02;;;;;;;155.00;55.55;;;;;;;15.98;100.00;100751.41;4864229;29;20046;-90
2022/10/21 10:32:34;;;;;;;169.48;56.35;;;;;;;15.98;100.00;100747.91;4866532;29;20029;-90
2022/10/21 10:35:04;;;;;;;170.03;57.13;;;;;;;15.97;100.00;100749.75;4866528;29;20105;-88
2022/10/21 10:37:35;;;;;;;161.75;57.40;;;;;;;15.99;100.00;100753.06;4865730;29;20053;-89
2022/10/21 10:40:06;;;;;;;171.98;59.42;;;;;;;15.93;100.00;100759.19;4865335;29;20041;-90
2022/10/21 10:42:40;;;;;;;166.43;56.10;;;;;;;16.01;100.00;100753.69;4864359;29;20125;-89
2022/10/21 10:45:19;;;;;;;166.65;59.67;;;;;;;15.97;100.00;100749.75;4863922;29;20392;-89
2022/10/21 10:48:04;;;;;;;171.30;57.38;;;;;;;15.99;100.00;100771.78;4867615;29;20045;-89
2022/10/21 10:50:36;;;;;;;163.38;58.22;;;;;;;15.91;100.00;100763.88;4867299;29;20037;-89
2022/10/21 10:53:32;;;;;;;159.30;55.30;;;;;;;16.12;100.00;100762.22;4868659;29;20046;-89
2022/10/21 10:56:13;;;;;;;151.90;54.45;;;;;;;15.97;100.00;100781.81;4868149;29;20068;-87
2022/10/21 10:59:11;;;;;;;152.85;54.45;;;;;;;16.04;100.00;100774.69;4870648;29;20097;-89
2022/10/21 11:01:49;;;;;;;159.27;52.20;;;;;;;16.09;100.00;100767.97;4877099;29;20049;-89
2022/10/21 11:04:27;;;;;;;173.10;54.67;;;;;;;16.09;100.00;100775.97;4883373;29;20062;-87
2022/10/21 11:07:29;;;;;;;175.38;56.17;;;;;;;16.06;100.00;100784.38;4880996;29;20078;-88
2022/10/21 11:19:02;;;;;;;188.52;58.92;;;;;;;16.06;100.00;100758.47;5010042;23;20040;-92